Time;durP1;ratioP1;P1;durP2;ratioP2;P2;SDS_P1;SDS_P2;PMS_P1;PMS_P2;Temp;Humidity;BMP_temperature;BMP_pressure;BME280_temperature;BME280_humidity;BME280_pressure;Samples;Min_cycle;Max_cycle;Signal;HPM_P1;HPM_P2
2022/02/12 00:49:20;;;;;;;;;;;;;;;;;;;;;
2022/02/12 01:43:27;;;;;;;6.32;1.35;;;8.80;99.90;;;;;;4744932;30;20110;-77
2022/02/12 03:38:48;;;;;;;1.58;1.20;;;8.70;99.90;;;;;;4714837;30;20052;-77
2022/02/12 03:42:15;;;;;;;4.22;1.58;;;8.70;99.90;;;;;;4714778;30;20455;-77
2022/02/12 04:04:03;;;;;;;;;;;;;;;;;;;;;
2022/02/12 04:10:47;;;;;;;;;;;;;;;;;;;;;
2022/02/12 04:17:34;;;;;;;3.00;1.67;;;8.70;99.90;;;;;;4695850;30;20080;-83
2022/02/12 04:52:39;;;;;;;;;;;;;;;;;;;;;
2022/02/12 04:55:31;;;;;;;1.48;1.20;;;8.50;99.70;;;;;;4831598;29;20341;-77
2022/02/12 05:02:08;;;;;;;1.63;1.35;;;8.50;99.70;;;;;;4861819;29;20500;-76
2022/02/12 05:05:42;;;;;;;;;;;;;;;;;;;;;
2022/02/12 05:09:22;;;;;;;3.25;1.30;;;8.50;99.50;;;;;;4809013;29;20035;-81
2022/02/12 05:23:54;;;;;;;3.30;1.50;;;8.40;99.20;;;;;;4753217;30;20063;-76
2022/02/12 05:27:46;;;;;;;;;;;;;;;;;;;;;
2022/02/12 05:30:13;;;;;;;2.40;1.48;;;8.40;99.10;;;;;;4710672;30;20041;-77
2022/02/12 05:40:13;;;;;;;7.35;1.95;;;8.20;99.50;;;;;;4711916;30;20550;-76
2022/02/12 05:46:34;;;;;;;;;;;;;;;;;;;;;
2022/02/12 05:53:12;;;;;;;2.47;1.80;;;8.10;99.60;;;;;;4757752;30;20063;-76
2022/02/12 06:03:00;;;;;;;3.33;1.60;;;8.00;99.90;;;;;;4839085;29;20506;-83
2022/02/12 06:34:55;;;;;;;;;;;;;;;;;;;;;
2022/02/12 06:59:06;;;;;;;2.17;1.20;;;11.20;96.50;;;;;;4681091;30;20127;-76
2022/02/12 07:01:57;;;;;;;1.42;1.10;;;12.00;95.60;;;;;;4714850;30;20045;-76
2022/02/12 07:08:50;;;;;;;;;;;;;;;;;;;;;
2022/02/12 07:26:35;;;;;;;1.63;1.20;;;14.70;90.20;;;;;;4789576;29;20039;-75
2022/02/12 07:33:35;;;;;;;1.33;0.70;;;14.90;89.30;;;;;;4856683;29;20091;-75
2022/02/12 07:36:31;;;;;;;3.65;0.95;;;16.10;87.00;;;;;;4797425;29;20492;-76
2022/02/12 07:39:04;;;;;;;3.55;0.75;;;16.60;83.20;;;;;;4802366;29;20070;-77
2022/02/12 07:42:09;;;;;;;3.95;0.90;;;16.50;82.30;;;;;;4769115;29;20536;-74
2022/02/12 07:45:14;;;;;;;1.77;0.80;;;17.00;81.70;;;;;;4815366;29;20069;-74
2022/02/12 07:48:41;;;;;;;;;;;;;;;;;;;;;
2022/02/12 08:20:52;;;;;;;8.48;0.75;;;19.30;67.80;;;;;;4735403;30;20071;-74
2022/02/12 08:23:56;;;;;;;;;;;;;;;;;;;;;
2022/02/12 08:48:40;;;;;;;;;;;;;;;;;;;;;
2022/02/12 09:01:52;;;;;;;1.15;0.60;;;13.70;76.00;;;;;;4662505;30;20055;-75
2022/02/12 09:04:53;;;;;;;6.28;0.90;;;13.90;75.60;;;;;;4737043;30;20558;-77
2022/02/12 09:14:56;;;;;;;4.97;1.10;;;13.30;76.60;;;;;;4803253;29;20478;-79
2022/02/12 09:40:16;;;;;;;;;;;;;;;;;;;;;
2022/02/12 09:46:44;;;;;;;1.92;0.68;;;20.60;62.80;;;;;;4817859;29;20042;-74
2022/02/12 09:49:51;;;;;;;2.38;0.80;;;21.10;60.70;;;;;;4783993;29;20040;-80
2022/02/12 09:53:39;;;;;;;1.27;0.60;;;21.20;59.70;;;;;;4778916;29;20463;-75
2022/02/12 09:56:41;;;;;;;0.77;0.63;;;22.30;58.70;;;;;;4767145;30;20136;-73
2022/02/12 09:59:38;;;;;;;3.25;0.85;;;23.30;57.10;;;;;;4766866;30;20551;-81
2022/02/12 10:02:24;;;;;;;0.88;0.57;;;23.00;56.70;;;;;;4770555;30;20170;-73
2022/02/12 10:05:20;;;;;;;1.88;0.80;;;23.60;55.90;;;;;;4762003;30;20048;-72
2022/02/12 10:08:16;;;;;;;1.63;0.85;;;23.60;55.20;;;;;;4753817;30;20043;-74
2022/02/12 10:10:56;;;;;;;1.10;0.60;;;24.70;54.20;;;;;;4818466;29;20079;-80
2022/02/12 10:13:53;;;;;;;1.88;0.60;;;26.00;52.60;;;;;;4823641;29;20042;-75
2022/02/12 10:20:22;;;;;;;0.98;0.70;;;27.60;50.10;;;;;;4864115;29;20080;-76
2022/02/12 10:22:48;;;;;;;1.30;0.60;;;27.10;49.20;;;;;;4898382;29;20033;-74
2022/02/12 10:29:34;;;;;;;1.60;0.73;;;28.60;47.40;;;;;;4876430;29;20060;-73
2022/02/12 10:32:11;;;;;;;0.95;0.57;;;27.50;47.10;;;;;;4863619;29;20110;-74
2022/02/12 10:43:03;;;;;;;1.52;0.57;;;24.20;49.70;;;;;;4869766;29;20387;-80
2022/02/12 10:45:14;;;;;;;;;;;;;;;;;;;;;
2022/02/12 10:48:32;;;;;;;2.55;1.02;;;24.60;49.20;;;;;;4880982;29;20033;-72
2022/02/12 11:02:19;;;;;;;;;;;;;;;;;;;;;
2022/02/12 11:05:46;;;;;;;;;;;;;;;;;;;;;
2022/02/12 11:48:01;;;;;;;;;;;;;;;;;;;;;
2022/02/12 12:22:50;;;;;;;6.35;3.22;;;11.70;75.50;;;;;;4654472;30;20136;-77
2022/02/12 13:02:24;;;;;;;;;;;;;;;;;;;;;
2022/02/12 13:09:03;;;;;;;;;;;;;;;;;;;;;
2022/02/12 13:51:11;;;;;;;;;;;;;;;;;;;;;
2022/02/12 14:38:33;;;;;;;4.03;2.60;;;10.30;86.40;;;;;;4801031;29;20038;-75
2022/02/12 16:53:10;;;;;;;10.45;4.45;;;8.40;90.30;;;;;;4766595;30;20067;-75
2022/02/12 16:56:13;;;;;;;7.88;4.90;;;8.40;90.40;;;;;;4778472;29;20103;-75
2022/02/12 17:09:27;;;;;;;15.20;5.25;;;8.30;90.50;;;;;;4802637;29;20078;-76
2022/02/12 17:43:33;;;;;;;7.18;4.75;;;8.00;91.10;;;;;;4864096;29;20063;-77
2022/02/12 18:16:33;;;;;;;9.10;5.10;;;7.80;92.20;;;;;;4882127;29;20123;-74
2022/02/12 18:18:59;;;;;;;11.90;5.85;;;7.90;92.30;;;;;;4881781;29;20478;-75
2022/02/12 18:21:25;;;;;;;8.38;5.30;;;7.80;92.40;;;;;;4881302;29;20043;-75
2022/02/12 18:23:51;;;;;;;9.65;5.25;;;7.80;92.50;;;;;;4881704;29;20029;-75
2022/02/12 18:26:20;;;;;;;7.82;5.03;;;7.80;92.60;;;;;;4881459;29;20041;-79
2022/02/12 18:28:47;;;;;;;8.85;4.90;;;7.70;92.60;;;;;;4881465;29;20040;-75
2022/02/12 18:31:14;;;;;;;7.25;4.88;;;7.70;92.70;;;;;;4881781;29;20090;-74
2022/02/12 18:33:41;;;;;;;9.18;4.97;;;7.70;92.70;;;;;;4881198;29;20041;-75
2022/02/12 18:36:10;;;;;;;9.85;6.25;;;7.70;92.70;;;;;;4881640;29;20044;-75
2022/02/12 18:38:36;;;;;;;10.63;6.25;;;7.70;92.60;;;;;;4881635;29;20033;-75
2022/02/12 18:41:02;;;;;;;8.07;5.45;;;7.70;92.70;;;;;;4865132;29;20129;-74
2022/02/12 18:43:29;;;;;;;7.43;4.40;;;7.70;92.70;;;;;;4881425;29;20478;-74
2022/02/12 18:45:59;;;;;;;10.93;4.68;;;7.70;92.80;;;;;;4861070;29;20519;-74
2022/02/12 18:48:25;;;;;;;9.07;5.43;;;7.60;92.80;;;;;;4862953;29;20033;-76
2022/02/12 18:50:51;;;;;;;9.25;5.28;;;7.60;93.20;;;;;;4862627;29;20048;-75
2022/02/12 18:53:20;;;;;;;10.48;5.18;;;7.60;92.90;;;;;;4862338;29;20038;-75
2022/02/12 18:55:49;;;;;;;7.43;5.15;;;7.60;93.00;;;;;;4863034;29;20037;-75
2022/02/12 18:58:15;;;;;;;13.05;5.13;;;7.60;93.00;;;;;;4862876;29;20038;-76
2022/02/12 19:00:42;;;;;;;8.15;4.85;;;7.60;93.10;;;;;;4862229;29;20065;-75
2022/02/12 19:03:11;;;;;;;8.23;5.38;;;7.60;93.10;;;;;;4861072;29;20390;-75
2022/02/12 19:05:40;;;;;;;9.50;5.20;;;7.50;93.40;;;;;;4861685;29;20037;-75
2022/02/12 19:08:06;;;;;;;8.23;5.68;;;7.60;93.10;;;;;;4862042;29;20074;-75
2022/02/12 19:10:35;;;;;;;14.25;5.40;;;7.60;93.10;;;;;;4861653;29;20041;-76
2022/02/12 19:13:01;;;;;;;8.27;5.47;;;7.50;93.20;;;;;;4862121;29;20505;-75
2022/02/12 19:15:27;;;;;;;12.20;6.28;;;7.50;93.20;;;;;;4861937;29;20475;-75
2022/02/12 19:17:53;;;;;;;11.23;5.75;;;7.50;93.30;;;;;;4862120;29;20033;-73
2022/02/12 19:20:19;;;;;;;7.43;5.40;;;7.50;93.10;;;;;;4860798;29;20040;-79
2022/02/12 19:22:50;;;;;;;6.68;5.10;;;7.50;93.20;;;;;;4861569;29;20029;-75
2022/02/12 19:25:17;;;;;;;8.25;5.28;;;7.40;93.10;;;;;;4862364;29;20030;-75
2022/02/12 19:27:43;;;;;;;8.85;5.00;;;7.40;93.20;;;;;;4862450;29;20069;-74
2022/02/12 19:30:14;;;;;;;10.02;5.60;;;7.40;93.10;;;;;;4862020;29;20037;-75
2022/02/12 19:32:41;;;;;;;10.88;5.35;;;7.40;93.10;;;;;;4862280;29;20178;-75
2022/02/12 19:35:07;;;;;;;9.40;4.97;;;7.40;93.10;;;;;;4861727;29;20479;-75
2022/02/12 19:37:33;;;;;;;13.52;5.75;;;7.40;93.10;;;;;;4861871;29;20065;-75
2022/02/12 19:39:59;;;;;;;9.15;5.50;;;7.40;93.20;;;;;;4861726;29;20104;-75
2022/02/12 19:42:25;;;;;;;10.27;5.13;;;7.40;93.10;;;;;;4860973;29;20501;-75
2022/02/12 19:44:58;;;;;;;7.47;5.03;;;7.30;93.10;;;;;;4870047;29;20048;-74
2022/02/12 19:47:24;;;;;;;9.60;5.60;;;7.40;93.10;;;;;;4863779;29;20493;-75
2022/02/12 19:49:50;;;;;;;10.27;5.85;;;7.30;93.10;;;;;;4880444;29;20509;-74
2022/02/12 19:52:19;;;;;;;10.98;5.47;;;7.40;93.00;;;;;;4880191;29;20045;-75
2022/02/12 19:54:45;;;;;;;16.15;7.55;;;7.30;93.00;;;;;;4879952;29;20482;-75
2022/02/12 19:57:12;;;;;;;15.32;7.75;;;7.30;92.90;;;;;;4880089;29;20037;-75
2022/02/12 19:59:38;;;;;;;16.13;7.53;;;7.30;92.90;;;;;;4880144;29;20097;-75
2022/02/12 20:02:04;;;;;;;8.20;5.75;;;7.30;93.00;;;;;;4879973;29;20041;-75
2022/02/12 20:04:30;;;;;;;7.57;4.60;;;7.30;92.90;;;;;;4879974;29;20029;-75
2022/02/12 20:06:57;;;;;;;8.57;5.18;;;7.30;93.00;;;;;;4879811;29;20033;-76
2022/02/12 20:09:23;;;;;;;11.18;5.85;;;7.30;93.00;;;;;;4879663;29;20037;-75
2022/02/12 20:11:49;;;;;;;7.97;5.60;;;7.20;93.00;;;;;;4862941;29;20426;-75
2022/02/12 20:14:16;;;;;;;13.85;6.50;;;7.30;93.10;;;;;;4863005;29;20044;-75
2022/02/12 20:16:42;;;;;;;7.05;5.20;;;7.20;93.10;;;;;;4880908;29;20109;-75
2022/02/12 20:19:12;;;;;;;7.90;5.03;;;7.20;93.20;;;;;;4879664;29;20167;-76
2022/02/12 20:21:38;;;;;;;5.22;4.45;;;7.20;93.20;;;;;;4863004;29;20130;-75
2022/02/12 20:24:05;;;;;;;8.38;5.28;;;7.20;93.10;;;;;;4879713;29;20033;-75
2022/02/12 20:26:31;;;;;;;8.05;5.03;;;7.20;93.20;;;;;;4879675;29;20048;-75
2022/02/12 20:29:03;;;;;;;6.43;4.68;;;7.20;93.20;;;;;;4879451;29;20127;-75
2022/02/12 20:31:29;;;;;;;;;;;7.20;93.30;;;;;;4879571;29;20049;-75
2022/02/12 20:33:55;;;;;;;9.02;5.22;;;7.20;93.30;;;;;;4863090;29;19912;-75
2022/02/12 20:36:21;;;;;;;9.57;5.45;;;7.20;93.40;;;;;;4879288;29;20509;-74
2022/02/12 20:38:50;;;;;;;11.02;5.53;;;7.10;93.50;;;;;;4879555;29;20085;-75
2022/02/12 20:41:18;;;;;;;7.93;5.40;;;7.10;93.50;;;;;;4879487;29;20059;-75
2022/02/12 20:43:44;;;;;;;8.75;4.93;;;7.10;93.50;;;;;;4862711;29;20037;-75
2022/02/12 20:46:10;;;;;;;13.23;5.78;;;7.10;93.60;;;;;;4879493;29;20502;-75
2022/02/12 20:48:37;;;;;;;12.38;5.50;;;7.10;93.70;;;;;;4879262;29;20068;-75
2022/02/12 20:51:03;;;;;;;7.10;4.72;;;7.10;93.70;;;;;;4879460;29;20474;-75
2022/02/12 20:53:29;;;;;;;13.40;4.88;;;7.10;93.70;;;;;;4862604;29;20042;-75
2022/02/12 20:55:55;;;;;;;10.95;6.10;;;7.00;93.60;;;;;;4879252;29;20379;-75
2022/02/12 20:58:21;;;;;;;9.70;5.63;;;7.10;93.80;;;;;;4879369;29;20112;-76
2022/02/12 21:00:48;;;;;;;9.88;6.03;;;7.00;93.80;;;;;;4879080;29;20039;-75
2022/02/12 21:03:15;;;;;;;9.10;5.55;;;7.00;93.80;;;;;;4879298;29;20029;-74
2022/02/12 21:05:42;;;;;;;9.38;6.13;;;7.00;94.20;;;;;;4878940;29;20458;-74
2022/02/12 21:08:28;;;;;;;8.75;5.50;;;7.00;93.90;;;;;;4879506;29;20038;-74
2022/02/12 21:10:54;;;;;;;9.98;5.15;;;7.00;93.90;;;;;;4879955;29;20049;-75
2022/02/12 21:13:21;;;;;;;8.48;5.90;;;7.00;93.90;;;;;;4882705;29;20029;-76
2022/02/12 21:15:47;;;;;;;14.82;6.18;;;7.00;94.00;;;;;;4882734;29;20394;-76
2022/02/12 21:18:28;;;;;;;11.30;5.65;;;7.00;94.00;;;;;;4882920;29;20037;-75
2022/02/12 21:20:56;;;;;;;11.55;5.60;;;7.00;94.00;;;;;;4882858;29;20502;-76
2022/02/12 21:23:23;;;;;;;7.15;4.88;;;7.00;94.00;;;;;;4882831;29;20045;-75
2022/02/12 21:25:49;;;;;;;8.85;5.90;;;7.00;94.00;;;;;;4882527;29;20044;-74
2022/02/12 21:28:15;;;;;;;9.45;6.07;;;7.00;94.10;;;;;;4882542;29;20045;-74
2022/02/12 21:30:42;;;;;;;9.73;6.03;;;7.00;94.20;;;;;;4882159;29;20069;-74
2022/02/12 21:33:08;;;;;;;8.80;5.55;;;7.00;94.20;;;;;;4882091;29;20498;-74
2022/02/12 21:35:40;;;;;;;7.90;5.38;;;7.00;94.20;;;;;;4882103;29;20051;-74
2022/02/12 21:38:06;;;;;;;8.65;4.93;;;6.90;94.20;;;;;;4882618;29;20495;-74
2022/02/12 21:40:34;;;;;;;10.93;5.22;;;6.90;94.30;;;;;;4882387;29;20041;-74
2022/02/12 21:43:00;;;;;;;6.70;4.97;;;6.90;94.40;;;;;;4865392;29;20394;-75
2022/02/12 21:45:26;;;;;;;8.95;5.40;;;6.90;94.50;;;;;;4882104;29;20053;-74
2022/02/12 21:47:52;;;;;;;9.13;4.93;;;6.90;94.50;;;;;;4882615;29;20033;-74
2022/02/12 21:50:18;;;;;;;8.77;5.65;;;6.90;94.50;;;;;;4882024;29;20033;-74
2022/02/12 21:52:45;;;;;;;9.98;5.60;;;6.90;94.60;;;;;;4865685;29;20406;-75
2022/02/12 21:55:11;;;;;;;9.55;5.03;;;6.80;94.60;;;;;;4882099;29;20057;-74
2022/02/12 21:57:39;;;;;;;6.50;5.20;;;6.90;94.60;;;;;;4882156;29;20482;-74
2022/02/12 22:00:09;;;;;;;9.00;5.65;;;6.80;94.70;;;;;;4881706;29;20040;-75
2022/02/12 22:02:35;;;;;;;9.55;5.35;;;6.80;94.70;;;;;;4882161;29;20039;-74
2022/02/12 22:05:01;;;;;;;13.88;5.53;;;6.80;94.80;;;;;;4865227;29;20033;-74
2022/02/12 22:07:27;;;;;;;9.82;6.18;;;6.80;94.80;;;;;;4882404;29;20041;-74
2022/02/12 22:09:52;;;;;;;7.75;4.85;;;6.80;94.90;;;;;;4882089;29;20386;-75
2022/02/12 22:12:19;;;;;;;8.80;5.43;;;6.80;94.90;;;;;;4882133;29;20124;-74
2022/02/12 22:14:45;;;;;;;7.70;5.38;;;6.80;95.00;;;;;;4881566;29;20494;-74
2022/02/12 22:17:11;;;;;;;9.23;5.57;;;6.80;95.10;;;;;;4881693;29;20128;-74
2022/02/12 22:19:37;;;;;;;10.60;5.32;;;6.70;95.10;;;;;;4881902;29;20203;-75
2022/02/12 22:22:05;;;;;;;8.90;5.60;;;6.80;95.20;;;;;;4880956;29;20043;-74
2022/02/12 22:24:31;;;;;;;9.82;5.32;;;6.80;95.20;;;;;;4880961;29;20037;-74
2022/02/12 22:26:57;;;;;;;13.50;6.05;;;6.80;95.20;;;;;;4881657;29;20037;-74
2022/02/12 22:29:23;;;;;;;10.27;6.05;;;6.80;95.20;;;;;;4865247;29;20033;-74
2022/02/12 22:31:50;;;;;;;7.47;4.93;;;6.80;95.30;;;;;;4881340;29;20045;-74
2022/02/12 22:34:19;;;;;;;11.45;5.40;;;6.70;95.40;;;;;;4881421;29;20041;-75
2022/02/12 22:36:48;;;;;;;11.70;5.93;;;6.70;95.50;;;;;;4881115;29;20080;-74
2022/02/12 22:39:14;;;;;;;12.07;5.95;;;6.70;95.60;;;;;;4881404;29;20428;-74
2022/02/12 22:41:40;;;;;;;10.55;5.85;;;6.70;95.60;;;;;;4880923;29;20116;-74
2022/02/12 22:44:07;;;;;;;10.93;6.25;;;6.70;95.60;;;;;;4880957;29;20109;-74
2022/02/12 22:46:33;;;;;;;8.38;5.60;;;6.70;95.70;;;;;;4881070;29;20045;-73
2022/02/12 22:48:59;;;;;;;9.70;5.72;;;6.70;95.80;;;;;;4880752;29;20065;-74
2022/02/12 22:51:28;;;;;;;10.18;5.70;;;6.70;95.80;;;;;;4880672;29;20465;-74
2022/02/12 22:53:55;;;;;;;9.95;5.95;;;6.70;95.80;;;;;;4881167;29;20044;-74
2022/02/12 22:56:21;;;;;;;10.05;6.00;;;6.60;95.90;;;;;;4880847;29;20422;-74
2022/02/12 22:58:48;;;;;;;7.03;5.15;;;6.70;96.00;;;;;;4881158;29;20049;-73
2022/02/12 23:01:15;;;;;;;12.40;5.80;;;6.60;96.00;;;;;;4881129;29;20069;-75
2022/02/12 23:03:43;;;;;;;9.75;5.88;;;6.60;96.00;;;;;;4881072;29;20041;-73
2022/02/12 23:06:10;;;;;;;9.93;6.03;;;6.60;96.20;;;;;;4880553;29;20040;-74
2022/02/12 23:09:22;;;;;;;8.88;5.65;;;6.60;96.30;;;;;;4880793;29;20437;-76
2022/02/12 23:11:27;;;;;;;9.68;5.50;;;6.50;96.20;;;;;;4876500;29;20052;-74
2022/02/12 23:13:53;;;;;;;12.43;5.07;;;6.50;96.30;;;;;;4863839;29;20482;-74
2022/02/12 23:16:25;;;;;;;7.97;5.13;;;6.50;96.40;;;;;;4880536;29;20029;-74
2022/02/12 23:18:51;;;;;;;13.15;6.30;;;6.50;96.60;;;;;;4880198;29;20068;-74
2022/02/12 23:21:19;;;;;;;8.07;5.65;;;6.40;96.60;;;;;;4880581;29;20063;-74
2022/02/12 23:23:46;;;;;;;11.77;5.75;;;6.50;96.70;;;;;;4880071;29;20466;-75
2022/02/12 23:26:12;;;;;;;8.23;5.70;;;6.40;96.70;;;;;;4879476;29;20116;-74
2022/02/12 23:28:38;;;;;;;9.15;5.65;;;6.50;96.80;;;;;;4879874;29;20033;-73
2022/02/12 23:31:04;;;;;;;8.65;5.35;;;6.40;96.70;;;;;;4879051;29;20101;-75
2022/02/12 23:33:31;;;;;;;7.60;5.55;;;6.40;96.80;;;;;;4879732;29;20390;-74
2022/02/12 23:35:57;;;;;;;9.25;5.22;;;6.40;96.80;;;;;;4878784;29;20051;-73
2022/02/12 23:38:24;;;;;;;8.40;5.00;;;6.40;96.80;;;;;;4879182;29;20077;-78
2022/02/12 23:40:50;;;;;;;10.35;5.85;;;6.50;96.90;;;;;;4879120;29;20128;-74
2022/02/12 23:43:19;;;;;;;9.32;5.82;;;6.50;97.00;;;;;;4879149;29;20033;-75
2022/02/12 23:45:45;;;;;;;12.30;6.10;;;6.40;97.00;;;;;;4878847;29;20048;-75
2022/02/12 23:48:13;;;;;;;14.85;6.70;;;6.40;97.00;;;;;;4879220;29;20040;-74
2022/02/12 23:50:40;;;;;;;9.48;5.38;;;6.50;97.10;;;;;;4862319;29;20120;-76
2022/02/12 23:53:06;;;;;;;13.70;5.68;;;6.40;97.10;;;;;;4879132;29;20043;-74
2022/02/12 23:55:34;;;;;;;9.48;5.50;;;6.50;97.10;;;;;;4862333;29;20033;-76
2022/02/12 23:58:00;;;;;;;11.23;5.80;;;6.40;97.10;;;;;;4878709;29;20077;-74
